Time;durP1;ratioP1;P1;durP2;ratioP2;P2;SDS_P1;SDS_P2;PMS_P1;PMS_P2;Temp;Humidity;BMP_temperature;BMP_pressure;BME280_temperature;BME280_humidity;BME280_pressure;Samples;Min_cycle;Max_cycle;Signal;HPM_P1;HPM_P2
2021/09/23 00:00:30;;;;;;;71.72;68.40;;;;;;;9.83;100.00;98746.31;5052577;28;20037;-83
2021/09/23 00:05:27;;;;;;;77.28;74.05;;;;;;;9.52;100.00;98735.31;5057502;28;20025;-85
2021/09/23 00:07:55;;;;;;;71.72;68.63;;;;;;;9.48;100.00;98727.94;5040950;28;20032;-83
2021/09/23 00:10:33;;;;;;;70.82;67.82;;;;;;;9.51;100.00;98733.69;5053591;28;20044;-84
2021/09/23 00:13:00;;;;;;;63.35;60.58;;;;;;;9.27;100.00;98743.44;5035453;28;20021;-84
2021/09/23 00:15:26;;;;;;;65.10;62.40;;;;;;;9.13;100.00;98745.03;5034459;28;20146;-83
2021/09/23 00:17:55;;;;;;;62.00;59.35;;;;;;;9.08;100.00;98736.81;5055971;28;20025;-81
2021/09/23 00:20:26;;;;;;;51.65;49.40;;;;;;;9.09;100.00;98735.72;5070544;28;20051;-84
2021/09/23 00:22:52;;;;;;;40.25;38.50;;;;;;;9.31;100.00;98749.19;5054977;28;20083;-85
2021/09/23 00:25:18;;;;;;;33.70;32.08;;;;;;;9.35;100.00;98745.66;5035692;28;20099;-85
2021/09/23 00:27:44;;;;;;;32.03;30.52;;;;;;;9.11;100.00;98755.41;5052336;28;20029;-84
2021/09/23 00:30:11;;;;;;;28.13;26.83;;;;;;;9.05;100.00;98751.78;5052352;28;20057;-84
2021/09/23 00:32:37;;;;;;;28.55;27.35;;;;;;;8.98;100.00;98755.88;5052168;28;20488;-83
2021/09/23 00:35:04;;;;;;;31.00;29.30;;;;;;;8.97;100.00;98744.13;5034996;28;20055;-85
2021/09/23 00:37:30;;;;;;;31.30;29.92;;;;;;;9.17;100.00;98754.31;5034382;28;20032;-84
2021/09/23 00:39:55;;;;;;;28.67;27.45;;;;;;;9.30;100.00;98748.38;5051740;28;20028;-84
2021/09/23 00:42:21;;;;;;;27.77;26.25;;;;;;;9.20;100.00;98747.50;5033876;28;20060;-83
2021/09/23 00:44:58;;;;;;;27.65;26.45;;;;;;;9.21;100.00;98747.22;5034334;28;20592;-85
2021/09/23 00:47:23;;;;;;;28.17;26.85;;;;;;;9.00;100.00;98749.06;5052326;28;20017;-87
2021/09/23 00:49:50;;;;;;;27.15;25.95;;;;;;;8.89;100.00;98757.47;5034752;28;20033;-84
2021/09/23 00:52:16;;;;;;;27.60;26.25;;;;;;;8.80;100.00;98748.13;5034609;28;20017;-85
2021/09/23 00:54:42;;;;;;;30.02;28.70;;;;;;;8.98;100.00;98750.41;5034353;28;20025;-83
2021/09/23 00:57:08;;;;;;;28.63;27.35;;;;;;;8.92;100.00;98755.03;5052244;28;20024;-85
2021/09/23 00:59:35;;;;;;;44.90;42.75;;;;;;;9.01;100.00;98755.34;5051579;28;20037;-90
2021/09/23 01:02:00;;;;;;;37.53;35.40;;;;;;;9.04;100.00;98752.06;5034312;28;20025;-86
2021/09/23 01:04:25;;;;;;;33.33;31.83;;;;;;;9.04;100.00;98757.53;5038068;28;20551;-84
2021/09/23 01:06:52;;;;;;;32.03;30.52;;;;;;;8.80;100.00;98759.06;5056144;28;20159;-84
2021/09/23 01:09:18;;;;;;;32.33;30.10;;;;;;;8.76;100.00;98761.47;5056100;28;20033;-85
2021/09/23 01:11:43;;;;;;;31.90;30.50;;;;;;;8.84;100.00;98751.97;5055683;28;20086;-85
2021/09/23 01:14:11;;;;;;;34.80;33.28;;;;;;;8.87;100.00;98760.44;5037886;28;20389;-84
2021/09/23 01:16:37;;;;;;;32.13;30.63;;;;;;;8.76;100.00;98758.75;5055202;28;20098;-87
2021/09/23 01:19:03;;;;;;;38.17;36.53;;;;;;;8.85;100.00;98753.63;5055156;28;20108;-82
2021/09/23 01:21:29;;;;;;;40.63;38.83;;;;;;;8.83;100.00;98750.34;5037628;28;20119;-85
2021/09/23 01:23:54;;;;;;;37.63;35.88;;;;;;;8.67;100.00;98754.88;5056143;28;20517;-85
2021/09/23 01:26:29;;;;;;;50.47;48.35;;;;;;;8.79;100.00;98757.41;5037219;28;20547;-82
2021/09/23 01:28:56;;;;;;;47.63;45.63;;;;;;;8.74;100.00;98760.09;5054888;28;20040;-84
2021/09/23 01:31:23;;;;;;;64.78;62.05;;;;;;;8.80;100.00;98750.88;5054583;28;20329;-81
2021/09/23 01:33:50;;;;;;;68.45;65.60;;;;;;;8.88;100.00;98750.34;5037053;28;20027;-81
2021/09/23 01:36:15;;;;;;;64.90;62.13;;;;;;;8.87;100.00;98743.25;5037101;28;20017;-87
2021/09/23 01:38:42;;;;;;;72.82;69.68;;;;;;;8.84;100.00;98754.69;5037079;28;20029;-83
2021/09/23 01:41:07;;;;;;;65.75;62.85;;;;;;;8.72;100.00;98749.44;5037560;28;20025;-84
2021/09/23 01:43:33;;;;;;;54.78;52.17;;;;;;;8.68;100.00;98744.81;5054760;28;20028;-84
2021/09/23 01:45:58;;;;;;;50.97;48.85;;;;;;;8.83;100.00;98742.16;5054967;28;20017;-83
2021/09/23 01:48:24;;;;;;;39.17;37.38;;;;;;;8.57;100.00;98739.28;5037242;28;20029;-81
2021/09/23 01:50:50;;;;;;;42.42;39.33;;;;;;;8.69;100.00;98732.78;5037290;28;20029;-85
2021/09/23 01:53:16;;;;;;;39.28;37.65;;;;;;;8.64;100.00;98721.88;5054809;28;20032;-84
2021/09/23 01:55:41;;;;;;;39.65;37.80;;;;;;;8.59;100.00;98728.09;5054646;28;20029;-82
2021/09/23 01:58:07;;;;;;;36.53;34.83;;;;;;;8.66;100.00;98730.59;5054816;28;20021;-84
2021/09/23 02:00:33;;;;;;;39.60;37.90;;;;;;;8.57;100.00;98724.81;5039368;28;20037;-85
2021/09/23 02:02:58;;;;;;;40.25;38.50;;;;;;;8.66;100.00;98731.41;5055841;28;20029;-82
2021/09/23 02:05:24;;;;;;;42.92;41.03;;;;;;;8.52;100.00;98736.50;5036932;28;20093;-86
2021/09/23 02:07:49;;;;;;;42.15;40.40;;;;;;;8.42;100.00;98741.91;5036934;28;20041;-83
2021/09/23 02:10:15;;;;;;;40.78;38.72;;;;;;;8.56;100.00;98725.88;5015984;28;20033;-85
2021/09/23 02:12:41;;;;;;;35.35;33.78;;;;;;;8.79;100.00;98722.75;5034756;28;20034;-83
2021/09/23 02:15:08;;;;;;;39.60;37.83;;;;;;;8.71;100.00;98725.97;5024900;28;20030;-85
2021/09/23 02:17:34;;;;;;;44.97;43.03;;;;;;;8.73;100.00;98732.00;5014396;28;20057;-82
2021/09/23 02:20:02;;;;;;;60.88;58.10;;;;;;;8.72;100.00;98724.91;5014803;28;20104;-84
2021/09/23 02:22:32;;;;;;;59.13;56.60;;;;;;;8.56;100.00;98732.16;5020999;28;20049;-86
2021/09/23 02:24:58;;;;;;;55.78;53.42;;;;;;;8.39;100.00;98728.81;5034306;28;20477;-84
2021/09/23 02:27:24;;;;;;;58.90;56.30;;;;;;;8.41;100.00;98718.44;5046495;28;20033;-83
2021/09/23 02:29:49;;;;;;;60.50;57.95;;;;;;;8.54;100.00;98711.72;5063397;28;20020;-86
2021/09/23 02:32:15;;;;;;;61.50;58.72;;;;;;;8.45;100.00;98713.28;5056274;28;20084;-84
2021/09/23 02:34:40;;;;;;;67.10;62.70;;;;;;;8.50;100.00;98722.31;5058266;28;20055;-84
2021/09/23 02:37:07;;;;;;;64.68;61.88;;;;;;;8.30;100.00;98722.16;5054474;28;20384;-84
2021/09/23 02:39:33;;;;;;;63.97;61.25;;;;;;;8.15;100.00;98710.31;5020141;28;20025;-82
2021/09/23 02:42:01;;;;;;;60.38;57.75;;;;;;;8.13;100.00;98721.47;5054831;28;20091;-85
2021/09/23 02:44:26;;;;;;;59.85;57.33;;;;;;;8.03;100.00;98722.22;5054274;28;20493;-84
2021/09/23 02:46:52;;;;;;;48.90;46.78;;;;;;;7.95;100.00;98722.69;5054382;28;20033;-83
2021/09/23 02:49:17;;;;;;;44.50;42.70;;;;;;;7.94;100.00;98720.22;5049317;28;20509;-83
2021/09/23 02:51:43;;;;;;;41.53;39.28;;;;;;;8.12;100.00;98713.53;5053718;28;20037;-82
2021/09/23 02:54:08;;;;;;;42.83;40.92;;;;;;;8.20;100.00;98715.81;5053828;28;20024;-82
2021/09/23 02:56:34;;;;;;;43.00;41.05;;;;;;;8.28;100.00;98718.88;5035953;28;20029;-84
2021/09/23 02:58:59;;;;;;;36.70;34.92;;;;;;;8.17;100.00;98711.72;5053489;28;20123;-83
2021/09/23 03:01:24;;;;;;;37.08;35.42;;;;;;;8.09;100.00;98720.34;5066779;28;20029;-83
2021/09/23 03:03:50;;;;;;;37.97;36.28;;;;;;;8.06;100.00;98715.41;5055264;28;20017;-82
2021/09/23 03:06:16;;;;;;;43.15;41.33;;;;;;;8.19;100.00;98725.88;5064059;28;20045;-84
2021/09/23 03:08:42;;;;;;;36.40;34.90;;;;;;;8.21;100.00;98729.16;5034395;28;20025;-86
2021/09/23 03:11:07;;;;;;;36.03;34.17;;;;;;;8.15;100.00;98719.31;5033973;28;20034;-85
2021/09/23 03:13:33;;;;;;;37.45;35.75;;;;;;;8.29;100.00;98723.28;5031835;28;20036;-82
2021/09/23 03:15:58;;;;;;;32.17;30.77;;;;;;;8.15;100.00;98722.03;5033050;28;20037;-83
2021/09/23 03:18:24;;;;;;;39.88;38.10;;;;;;;8.22;100.00;98730.81;5033253;28;20078;-83
2021/09/23 03:20:49;;;;;;;34.10;32.40;;;;;;;8.04;100.00;98723.03;5032919;28;20033;-84
2021/09/23 03:23:16;;;;;;;33.58;31.48;;;;;;;7.94;100.00;98723.78;5033088;28;20536;-84
2021/09/23 03:25:42;;;;;;;34.78;33.20;;;;;;;8.01;100.00;98731.72;5033233;28;20033;-86
2021/09/23 03:28:08;;;;;;;35.42;33.83;;;;;;;8.03;100.00;98724.94;5027985;28;20089;-83
2021/09/23 03:30:35;;;;;;;50.10;48.05;;;;;;;8.04;100.00;98734.75;5033071;28;20026;-85
2021/09/23 03:33:09;;;;;;;49.08;46.97;;;;;;;7.89;100.00;98726.44;5032805;28;20024;-82
2021/09/23 03:35:36;;;;;;;39.85;37.85;;;;;;;7.81;100.00;98723.38;5033270;28;20041;-86
2021/09/23 03:38:03;;;;;;;33.65;32.15;;;;;;;7.78;100.00;98723.88;5032583;28;20025;-85
2021/09/23 03:40:29;;;;;;;39.00;37.22;;;;;;;7.75;100.00;98718.94;5032752;28;20035;-84
2021/09/23 03:42:55;;;;;;;36.50;34.65;;;;;;;7.73;100.00;98729.28;5032611;28;20026;-85
2021/09/23 03:45:22;;;;;;;42.20;40.15;;;;;;;7.68;100.00;98723.78;5032548;28;20048;-83
2021/09/23 03:47:48;;;;;;;35.97;34.35;;;;;;;7.75;100.00;98725.22;5032381;28;20474;-87
2021/09/23 03:50:13;;;;;;;46.13;43.80;;;;;;;7.80;100.00;98727.19;5032273;28;20064;-85
2021/09/23 03:52:41;;;;;;;43.78;41.95;;;;;;;7.74;100.00;98731.75;5032458;28;20017;-81
2021/09/23 03:55:07;;;;;;;48.13;45.92;;;;;;;7.86;100.00;98726.94;5032384;28;20076;-84
2021/09/23 03:57:32;;;;;;;43.03;41.13;;;;;;;8.01;100.00;98727.09;5032410;28;20017;-83
2021/09/23 03:59:58;;;;;;;39.25;37.30;;;;;;;7.94;100.00;98734.66;5042140;28;20021;-81
2021/09/23 04:02:24;;;;;;;35.22;33.67;;;;;;;7.99;100.00;98731.16;5032055;28;20026;-83
2021/09/23 04:04:50;;;;;;;36.35;34.65;;;;;;;8.11;100.00;98723.66;5025040;28;20026;-83
2021/09/23 04:07:15;;;;;;;33.83;32.08;;;;;;;8.00;100.00;98728.19;5032846;28;20017;-83
2021/09/23 04:09:42;;;;;;;33.72;32.22;;;;;;;7.88;100.00;98730.25;5032491;28;20022;-82
2021/09/23 04:12:07;;;;;;;33.47;31.85;;;;;;;7.85;100.00;98724.50;5014993;28;20068;-84
2021/09/23 04:14:33;;;;;;;39.83;37.90;;;;;;;8.20;100.00;98726.72;5032216;28;20068;-82
2021/09/23 04:16:59;;;;;;;42.00;40.20;;;;;;;8.14;100.00;98727.75;5026127;28;20036;-81
2021/09/23 04:19:24;;;;;;;43.63;41.58;;;;;;;8.11;100.00;98731.81;5049994;28;20112;-81
2021/09/23 04:21:50;;;;;;;41.45;39.58;;;;;;;8.01;100.00;98742.63;5051729;28;20035;-83
2021/09/23 04:24:16;;;;;;;39.15;37.42;;;;;;;7.92;100.00;98741.47;5051909;28;20036;-85
2021/09/23 04:26:42;;;;;;;46.60;44.45;;;;;;;7.94;100.00;98740.13;5051579;28;20040;-84
2021/09/23 04:29:07;;;;;;;50.60;48.25;;;;;;;7.94;100.00;98740.13;5047296;28;20029;-85
2021/09/23 04:31:33;;;;;;;52.30;49.92;;;;;;;7.79;100.00;98748.16;5057659;28;20039;-84
2021/09/23 04:33:58;;;;;;;62.20;59.50;;;;;;;7.87;100.00;98744.13;5046295;28;20023;-82
2021/09/23 04:36:24;;;;;;;60.50;57.88;;;;;;;7.84;100.00;98744.63;5051460;28;20505;-81
2021/09/23 04:38:49;;;;;;;97.45;92.80;;;;;;;7.85;100.00;98758.00;5054737;28;20549;-82
2021/09/23 04:41:15;;;;;;;54.33;51.80;;;;;;;7.95;100.00;98757.28;5052924;28;20103;-83
2021/09/23 04:43:42;;;;;;;46.40;44.30;;;;;;;7.84;100.00;98758.25;5044471;28;20025;-85
2021/09/23 04:46:08;;;;;;;55.40;53.00;;;;;;;7.96;100.00;98753.47;5040358;28;20030;-84
2021/09/23 04:48:36;;;;;;;43.55;41.45;;;;;;;7.87;100.00;98760.47;5037918;28;20037;-84
2021/09/23 04:51:01;;;;;;;47.83;45.35;;;;;;;7.86;100.00;98756.91;5035147;28;20029;-85
2021/09/23 04:53:27;;;;;;;82.20;78.47;;;;;;;7.94;100.00;98766.53;5042743;28;20021;-82
2021/09/23 04:55:53;;;;;;;91.60;87.53;;;;;;;8.17;100.00;98763.47;5035461;28;20515;-83
2021/09/23 04:58:19;;;;;;;72.35;67.32;;;;;;;8.20;100.00;98764.84;5035146;28;20117;-83
2021/09/23 05:00:44;;;;;;;42.53;40.40;;;;;;;8.13;100.00;98762.34;5049562;28;20025;-80
2021/09/23 05:03:18;;;;;;;38.30;36.53;;;;;;;8.14;100.00;98765.91;5055050;28;20029;-82
2021/09/23 05:05:43;;;;;;;41.70;38.65;;;;;;;8.24;100.00;98772.25;5054812;28;20401;-79
2021/09/23 05:08:09;;;;;;;39.50;37.55;;;;;;;8.30;100.00;98776.69;5050014;28;20032;-82
2021/09/23 05:10:35;;;;;;;34.42;32.70;;;;;;;8.22;100.00;98771.69;5055240;28;20064;-87
2021/09/23 05:13:02;;;;;;;35.42;33.63;;;;;;;8.37;100.00;98769.09;5055373;28;20497;-83
2021/09/23 05:15:28;;;;;;;38.50;36.75;;;;;;;8.21;100.00;98770.03;5070320;28;20500;-80
2021/09/23 05:17:53;;;;;;;39.63;37.72;;;;;;;8.23;100.00;98769.78;5065342;28;20025;-81
2021/09/23 05:20:19;;;;;;;37.00;35.05;;;;;;;8.25;100.00;98773.06;5072578;28;20087;-85
2021/09/23 05:22:45;;;;;;;37.65;35.35;;;;;;;8.40;100.00;98771.31;5034477;28;20065;-84
2021/09/23 05:25:11;;;;;;;37.03;35.13;;;;;;;8.43;100.00;98769.97;5038727;28;20025;-85
2021/09/23 05:27:37;;;;;;;35.33;33.53;;;;;;;8.39;100.00;98772.41;5008848;28;20025;-86
2021/09/23 05:30:05;;;;;;;50.72;48.45;;;;;;;8.41;100.00;98770.25;5021715;28;20785;-84
2021/09/23 05:32:31;;;;;;;47.65;44.72;;;;;;;8.61;100.00;98764.13;5034999;28;20397;-83
2021/09/23 05:34:57;;;;;;;45.05;42.67;;;;;;;8.51;100.00;98761.31;5018206;28;20021;-84
2021/09/23 05:37:22;;;;;;;41.78;39.78;;;;;;;8.35;100.00;98765.00;5034648;28;20057;-79
2021/09/23 05:39:48;;;;;;;38.30;36.50;;;;;;;8.28;100.00;98761.66;5017240;28;20052;-79
2021/09/23 05:42:13;;;;;;;44.72;42.50;;;;;;;8.09;100.00;98766.66;5033989;28;20060;-84
2021/09/23 05:44:39;;;;;;;48.53;46.40;;;;;;;8.01;100.00;98761.69;5035384;28;20375;-87
2021/09/23 05:47:04;;;;;;;44.92;42.60;;;;;;;8.14;100.00;98772.19;5003461;28;20509;-86
2021/09/23 05:49:29;;;;;;;43.17;40.88;;;;;;;8.14;100.00;98768.63;4995570;28;20448;-85
2021/09/23 05:51:56;;;;;;;36.38;34.47;;;;;;;8.21;100.00;98769.19;5014253;28;20393;-84
2021/09/23 05:54:25;;;;;;;35.40;33.65;;;;;;;8.32;100.00;98777.25;5014132;28;20036;-83
2021/09/23 05:56:50;;;;;;;38.85;36.85;;;;;;;8.17;100.00;98765.38;5012069;28;20030;-86
2021/09/23 05:59:16;;;;;;;36.58;34.28;;;;;;;8.42;100.00;98774.63;5015845;28;20478;-85
2021/09/23 06:01:42;;;;;;;31.25;29.35;;;;;;;8.51;100.00;98777.66;5007494;28;20029;-86
2021/09/23 06:04:09;;;;;;;33.10;31.45;;;;;;;8.67;100.00;98786.78;5035135;28;20562;-84
2021/09/23 06:06:34;;;;;;;44.55;42.58;;;;;;;8.73;100.00;98780.28;5015988;28;20513;-84
2021/09/23 06:09:00;;;;;;;48.10;45.97;;;;;;;8.96;100.00;98782.59;5035419;28;20057;-84
2021/09/23 06:11:26;;;;;;;35.80;34.22;;;;;;;8.93;100.00;98774.94;5016566;28;20478;-86
2021/09/23 06:13:51;;;;;;;35.08;33.28;;;;;;;8.89;100.00;98780.13;5034398;28;20093;-84
2021/09/23 06:16:16;;;;;;;34.97;33.10;;;;;;;8.91;100.00;98777.94;5034651;28;20495;-84
2021/09/23 06:18:42;;;;;;;35.10;33.40;;;;;;;8.83;100.00;98764.81;5034848;28;20029;-83
2021/09/23 06:21:08;;;;;;;35.53;34.03;;;;;;;8.82;100.00;98767.78;5035305;28;20031;-83
2021/09/23 06:23:35;;;;;;;34.42;32.53;;;;;;;8.79;100.00;98773.75;5034112;28;20053;-83
2021/09/23 06:26:04;;;;;;;34.10;32.40;;;;;;;8.65;100.00;98767.13;5016688;28;20032;-87
2021/09/23 06:28:32;;;;;;;39.85;37.92;;;;;;;8.51;100.00;98767.59;5027809;28;20038;-85
2021/09/23 06:31:05;;;;;;;38.85;36.95;;;;;;;8.63;100.00;98763.84;5016343;28;20076;-85
2021/09/23 06:33:30;;;;;;;45.28;43.03;;;;;;;8.72;100.00;98774.00;4996685;28;20837;-84
2021/09/23 06:35:56;;;;;;;39.45;37.40;;;;;;;8.72;100.00;98765.81;4996754;28;20033;-85
2021/09/23 06:38:22;;;;;;;36.83;35.15;;;;;;;8.80;100.00;98765.31;5013185;28;20491;-80
2021/09/23 06:40:47;;;;;;;38.42;36.13;;;;;;;8.95;100.00;98765.41;5005682;28;20464;-83
2021/09/23 06:43:13;;;;;;;41.83;39.67;;;;;;;8.89;100.00;98771.94;5022577;28;20018;-84
2021/09/23 06:45:38;;;;;;;40.13;37.92;;;;;;;8.76;100.00;98763.38;5035338;28;20433;-84
2021/09/23 06:48:04;;;;;;;43.95;41.13;;;;;;;8.89;100.00;98760.19;5033951;28;20517;-85
2021/09/23 06:50:30;;;;;;;40.30;38.25;;;;;;;9.14;100.00;98763.06;5033779;28;20033;-86
2021/09/23 06:52:55;;;;;;;41.45;39.05;;;;;;;9.18;100.00;98766.88;5032974;28;20096;-84
2021/09/23 06:55:21;;;;;;;42.70;40.42;;;;;;;9.24;100.00;98768.53;5032520;28;20026;-86
2021/09/23 06:57:46;;;;;;;36.92;35.03;;;;;;;9.36;100.00;98762.88;5024832;28;20025;-83
2021/09/23 07:00:12;;;;;;;31.92;30.48;;;;;;;9.26;100.00;98774.56;5022653;28;20051;-84
2021/09/23 07:02:38;;;;;;;28.67;27.17;;;;;;;9.42;100.00;98756.34;5013318;28;20030;-85
2021/09/23 07:05:04;;;;;;;28.10;26.63;;;;;;;9.81;100.00;98773.91;4995886;28;20030;-82
2021/09/23 07:07:30;;;;;;;29.52;28.02;;;;;;;10.04;100.00;98767.13;5012940;28;20022;-83
2021/09/23 07:09:56;;;;;;;42.78;40.75;;;;;;;10.20;100.00;98779.75;5012651;28;20033;-84
2021/09/23 07:12:24;;;;;;;105.55;101.05;;;;;;;10.25;100.00;98782.47;5013281;28;20025;-86
2021/09/23 07:14:49;;;;;;;72.97;69.82;;;;;;;10.08;100.00;98776.44;5013036;28;20030;-83
2021/09/23 07:17:14;;;;;;;101.88;97.18;;;;;;;9.96;100.00;98775.88;5012806;28;20368;-85
2021/09/23 07:19:40;;;;;;;70.18;66.72;;;;;;;9.90;100.00;98779.69;5014613;28;20489;-82
2021/09/23 07:22:08;;;;;;;59.28;56.60;;;;;;;10.12;100.00;98778.31;5036339;28;20539;-82
2021/09/23 07:24:33;;;;;;;47.50;45.38;;;;;;;10.41;100.00;98773.19;5073258;28;20078;-82
2021/09/23 07:26:58;;;;;;;47.00;44.60;;;;;;;10.65;100.00;98770.72;5057919;28;20477;-85
2021/09/23 07:29:25;;;;;;;46.63;44.60;;;;;;;10.68;100.00;98764.69;5046658;28;20025;-83
2021/09/23 07:31:51;;;;;;;40.30;38.40;;;;;;;10.74;100.00;98763.59;5052745;28;20039;-82
2021/09/23 07:34:17;;;;;;;36.80;35.20;;;;;;;10.95;100.00;98753.41;5053481;28;20477;-83
2021/09/23 07:36:42;;;;;;;32.42;30.70;;;;;;;11.51;97.87;98760.31;5043419;28;20562;-85
2021/09/23 07:39:09;;;;;;;25.90;24.50;;;;;;;11.94;93.96;98764.19;5046597;28;20404;-83
2021/09/23 07:41:39;;;;;;;26.02;24.67;;;;;;;11.97;91.86;98766.38;5045161;28;20025;-84
2021/09/23 07:44:09;;;;;;;23.38;22.08;;;;;;;11.69;93.88;98756.09;5044469;28;20028;-83
2021/09/23 07:46:36;;;;;;;26.95;25.52;;;;;;;12.21;90.25;98769.25;5023049;28;20040;-81
2021/09/23 07:49:03;;;;;;;21.75;20.75;;;;;;;13.71;82.98;98770.72;5028570;28;20135;-83
2021/09/23 07:51:28;;;;;;;25.80;24.58;;;;;;;14.26;77.88;98753.38;5039811;28;20024;-82
2021/09/23 07:53:54;;;;;;;24.73;23.63;;;;;;;15.88;70.90;98762.16;5023773;28;20025;-81
2021/09/23 07:56:20;;;;;;;21.63;20.63;;;;;;;16.22;67.06;98761.69;5041068;28;20009;-82
2021/09/23 07:58:45;;;;;;;19.67;18.67;;;;;;;17.56;63.81;98773.41;5024101;28;20013;-82
2021/09/23 08:01:11;;;;;;;21.35;20.33;;;;;;;16.35;65.59;98771.06;5028697;28;20024;-83
2021/09/23 08:03:36;;;;;;;17.83;17.13;;;;;;;17.04;62.06;98773.16;5041421;28;20104;-82
2021/09/23 08:06:01;;;;;;;18.13;17.27;;;;;;;17.97;60.00;98771.06;5040120;28;20504;-82
2021/09/23 08:08:27;;;;;;;17.27;16.38;;;;;;;17.77;59.20;98755.06;5024844;28;20066;-83
2021/09/23 08:10:54;;;;;;;16.48;15.68;;;;;;;18.16;57.44;98768.81;5038209;28;20021;-82
2021/09/23 08:13:19;;;;;;;19.65;18.75;;;;;;;18.28;57.58;98767.34;5041035;28;20013;-82
2021/09/23 08:15:45;;;;;;;15.52;14.52;;;;;;;18.10;57.58;98756.25;5040341;28;20098;-82
2021/09/23 08:18:12;;;;;;;14.13;13.32;;;;;;;19.14;54.12;98755.00;5037380;28;20701;-77
2021/09/23 08:20:38;;;;;;;15.13;14.38;;;;;;;18.69;54.85;98760.19;5042978;28;20013;-77
2021/09/23 08:23:04;;;;;;;14.65;13.95;;;;;;;18.32;54.81;98751.69;5037453;28;20454;-79
2021/09/23 08:25:32;;;;;;;15.77;14.90;;;;;;;18.58;54.60;98752.50;5047554;28;20032;-81
2021/09/23 08:27:58;;;;;;;14.05;13.45;;;;;;;18.58;54.44;98749.75;5041616;28;20029;-79
2021/09/23 08:30:23;;;;;;;14.40;13.13;;;;;;;19.65;50.84;98758.72;5040350;28;20432;-80
2021/09/23 08:32:49;;;;;;;13.82;13.10;;;;;;;18.93;51.67;98744.94;5024623;28;20018;-77
2021/09/23 08:35:15;;;;;;;13.63;12.63;;;;;;;18.97;51.32;98746.75;5040186;28;20477;-77
2021/09/23 08:37:41;;;;;;;14.32;13.63;;;;;;;19.86;49.79;98748.47;5040718;28;20021;-77
2021/09/23 08:40:11;;;;;;;13.45;12.73;;;;;;;20.66;47.87;98760.28;5040543;28;20079;-76
2021/09/23 08:42:39;;;;;;;13.88;13.27;;;;;;;19.43;50.20;98759.81;5023841;28;20033;-76
2021/09/23 08:45:07;;;;;;;14.77;14.02;;;;;;;20.96;47.95;98747.84;5042195;28;20021;-80
2021/09/23 08:47:33;;;;;;;12.90;12.20;;;;;;;20.58;48.28;98750.84;5049975;28;20041;-75
2021/09/23 08:50:00;;;;;;;16.52;15.35;;;;;;;20.10;48.91;98745.03;5051735;28;20494;-73
2021/09/23 08:52:29;;;;;;;15.38;14.43;;;;;;;20.55;47.25;98736.84;5048305;28;20110;-75
2021/09/23 08:54:55;;;;;;;15.20;14.05;;;;;;;21.22;44.88;98736.47;5038726;28;20036;-72
2021/09/23 08:57:21;;;;;;;14.48;13.77;;;;;;;20.71;45.62;98732.25;5057027;28;20021;-73
2021/09/23 08:59:46;;;;;;;13.57;12.40;;;;;;;20.81;46.08;98729.88;5031898;28;20525;-72
2021/09/23 09:02:30;;;;;;;15.32;14.27;;;;;;;20.88;46.16;98725.72;5039434;28;20028;-73
2021/09/23 09:04:56;;;;;;;14.32;13.55;;;;;;;20.75;46.50;98716.50;5035728;28;20069;-72
2021/09/23 09:07:25;;;;;;;14.50;13.65;;;;;;;21.98;44.18;98724.66;5037607;28;20135;-73
2021/09/23 09:09:52;;;;;;;12.75;12.15;;;;;;;21.25;46.39;98714.31;5039017;28;20060;-74
2021/09/23 09:12:23;;;;;;;17.88;16.85;;;;;;;21.17;46.51;98718.03;5039992;28;20028;-74
2021/09/23 09:14:48;;;;;;;16.23;15.13;;;;;;;21.50;46.12;98714.31;5030365;28;20025;-74
2021/09/23 09:17:18;;;;;;;14.57;13.50;;;;;;;20.95;47.23;98707.31;5042915;28;20017;-72
2021/09/23 09:19:46;;;;;;;16.50;15.55;;;;;;;21.86;45.98;98705.94;5060463;28;20029;-75
2021/09/23 09:22:13;;;;;;;15.30;14.60;;;;;;;22.09;45.16;98715.44;5038738;28;20049;-76
2021/09/23 09:25:01;;;;;;;14.50;13.65;;;;;;;22.39;44.04;98699.22;5043342;28;20029;-74
2021/09/23 09:27:32;;;;;;;14.35;13.60;;;;;;;22.31;44.57;98702.94;5035485;28;20055;-75
2021/09/23 09:30:19;;;;;;;15.82;14.48;;;;;;;22.92;43.11;98709.91;5050463;28;20045;-74
2021/09/23 09:32:59;;;;;;;16.02;15.15;;;;;;;23.87;39.19;98699.53;5038380;28;20370;-74
2021/09/23 09:35:36;;;;;;;15.13;14.27;;;;;;;21.91;43.42;98694.59;5042291;28;20618;-76
2021/09/23 09:38:04;;;;;;;16.17;15.20;;;;;;;21.74;43.77;98689.25;5053267;28;20028;-74
2021/09/23 09:40:36;;;;;;;16.45;15.38;;;;;;;21.16;44.70;98682.19;5052903;28;20031;-75
2021/09/23 09:43:05;;;;;;;14.60;13.45;;;;;;;22.32;42.61;98683.09;5052250;28;20072;-74
2021/09/23 09:45:32;;;;;;;14.38;13.77;;;;;;;22.20;43.38;98688.72;5061338;28;20037;-75
2021/09/23 09:47:59;;;;;;;17.02;16.00;;;;;;;22.65;41.72;98684.78;5057264;28;20067;-74
2021/09/23 09:50:35;;;;;;;16.15;15.38;;;;;;;22.42;42.71;98676.19;5053071;28;20108;-73
2021/09/23 09:53:12;;;;;;;14.70;13.88;;;;;;;22.51;42.03;98676.84;5036006;28;20033;-74
2021/09/23 09:55:43;;;;;;;15.45;14.57;;;;;;;22.28;41.84;98672.97;5038193;28;20546;-74
2021/09/23 09:58:11;;;;;;;15.15;14.25;;;;;;;22.78;41.26;98669.63;5015326;28;20021;-75
2021/09/23 10:00:37;;;;;;;16.40;15.60;;;;;;;22.64;40.98;98669.22;5018361;28;20090;-74
2021/09/23 10:03:03;;;;;;;16.83;15.88;;;;;;;23.07;39.99;98673.97;5039404;28;20032;-74
2021/09/23 10:05:30;;;;;;;14.68;13.90;;;;;;;23.41;39.67;98668.50;5019752;28;20032;-75
2021/09/23 10:07:57;;;;;;;14.00;13.30;;;;;;;23.51;38.47;98664.34;5037804;28;20033;-73
2021/09/23 10:10:31;;;;;;;15.48;14.57;;;;;;;23.17;38.50;98665.88;5019906;28;20089;-74
2021/09/23 10:12:58;;;;;;;15.57;14.38;;;;;;;22.77;39.25;98659.66;5040024;28;20028;-73
2021/09/23 10:15:24;;;;;;;15.70;14.60;;;;;;;22.55;40.01;98657.41;5023839;28;20366;-74
2021/09/23 10:17:55;;;;;;;14.52;13.82;;;;;;;22.91;39.48;98654.44;5040731;28;20021;-75
2021/09/23 10:20:24;;;;;;;16.17;15.27;;;;;;;23.17;38.41;98642.72;5023316;28;20033;-77
2021/09/23 10:22:50;;;;;;;18.05;16.95;;;;;;;22.80;39.56;98643.00;5031561;28;20108;-78
2021/09/23 10:25:18;;;;;;;17.63;16.50;;;;;;;24.71;37.02;98652.16;5044982;28;20051;-75
2021/09/23 10:27:58;;;;;;;17.15;15.80;;;;;;;25.07;35.48;98654.41;5036840;28;20033;-74
2021/09/23 10:30:33;;;;;;;16.08;15.27;;;;;;;25.23;35.37;98643.91;5035410;28;20052;-77
2021/09/23 10:33:00;;;;;;;15.95;14.80;;;;;;;24.72;36.18;98648.16;5039935;28;20006;-75
2021/09/23 10:35:29;;;;;;;16.10;14.77;;;;;;;23.85;37.91;98634.78;5039418;28;20416;-73
2021/09/23 10:38:00;;;;;;;16.52;15.55;;;;;;;25.03;36.00;98639.53;5038737;28;20420;-78
2021/09/23 10:40:28;;;;;;;14.38;13.55;;;;;;;25.06;35.22;98635.22;5039991;28;20021;-76
2021/09/23 10:42:58;;;;;;;15.20;14.40;;;;;;;23.87;37.56;98626.84;5034155;28;20009;-73
2021/09/23 10:45:27;;;;;;;15.73;14.93;;;;;;;23.78;36.87;98629.84;5049543;28;20029;-76
2021/09/23 10:47:59;;;;;;;12.68;12.07;;;;;;;23.25;37.13;98624.97;5051824;28;20029;-75
2021/09/23 10:50:29;;;;;;;15.15;14.45;;;;;;;23.51;36.79;98613.25;5051579;28;20401;-74
2021/09/23 10:52:57;;;;;;;18.23;13.57;;;;;;;23.57;36.97;98617.38;5043970;28;20059;-74
2021/09/23 10:55:27;;;;;;;15.45;14.07;;;;;;;22.89;36.82;98612.94;5030982;28;20021;-73
2021/09/23 10:57:53;;;;;;;16.00;14.82;;;;;;;23.18;36.95;98605.28;5023277;28;20045;-73
2021/09/23 11:00:25;;;;;;;14.98;14.32;;;;;;;24.60;33.76;98609.97;5044795;28;20017;-72
2021/09/23 11:02:53;;;;;;;14.30;13.55;;;;;;;23.65;36.01;98602.41;5044993;28;20035;-72
2021/09/23 11:05:20;;;;;;;16.45;15.60;;;;;;;20.90;40.43;98596.25;5050651;28;20009;-75
2021/09/23 11:07:47;;;;;;;14.45;13.50;;;;;;;19.84;42.68;98580.56;5047536;28;20033;-75
2021/09/23 11:10:15;;;;;;;15.63;14.82;;;;;;;20.36;42.11;98580.91;5040114;28;20028;-75
2021/09/23 11:12:43;;;;;;;14.98;14.23;;;;;;;19.54;43.54;98569.56;5041737;28;20029;-74
2021/09/23 11:15:12;;;;;;;13.70;13.10;;;;;;;19.81;43.17;98568.16;5029674;28;20026;-73
2021/09/23 11:17:41;;;;;;;16.73;15.93;;;;;;;19.91;42.21;98559.44;5039176;28;20481;-74